Time;durP1;ratioP1;P1;durP2;ratioP2;P2;SDS_P1;SDS_P2;PMS_P1;PMS_P2;Temp;Humidity;BMP_temperature;BMP_pressure;BME280_temperature;BME280_humidity;BME280_pressure;Samples;Min_cycle;Max_cycle;Signal;HPM_P1;HPM_P2
2021/06/05 00:00:17;;;;;;;;;;;;;;;24.16;34.92;100759.37;5222574;27;33393;-87
2021/06/05 00:02:52;;;;;;;;;;;;;;;23.57;36.13;100749.31;5241728;27;33658;-87
2021/06/05 00:05:31;;;;;;;;;;;;;;;23.62;36.02;100756.00;5223232;27;33055;-87
2021/06/05 00:08:05;;;;;;;;;;;;;;;24.10;35.10;100749.16;5222642;27;33234;-86
2021/06/05 00:10:41;;;;;;;;;;;;;;;23.54;36.14;100745.06;5222534;27;33673;-87
2021/06/05 00:13:14;;;;;;;;;;;;;;;23.83;35.82;100742.16;5222612;27;33400;-87
2021/06/05 00:15:47;;;;;;;;;;;;;;;23.56;36.74;100750.25;5257925;27;33700;-87
2021/06/05 00:18:22;;;;;;;;;;;;;;;23.70;36.42;100744.00;5222208;27;33642;-87
2021/06/05 00:20:56;;;;;;;;;;;;;;;23.37;36.38;100743.56;5239703;27;34234;-87
2021/06/05 00:23:31;;;;;;;;;;;;;;;23.50;36.12;100743.56;5257341;27;34296;-87
2021/06/05 00:26:09;;;;;;;;;;;;;;;23.66;35.93;100752.16;5224006;27;33701;-87
2021/06/05 00:28:39;;;;;;;;;;;;;;;23.81;35.91;100750.25;5221898;27;33147;-86
2021/06/05 00:31:15;;;;;;;;;;;;;;;23.91;35.56;100749.63;5223368;27;32320;-88
2021/06/05 00:34:11;;;;;;;;;;;;;;;24.20;34.70;100749.34;5227638;27;33460;-87
2021/06/05 00:36:43;;;;;;;;;;;;;;;24.06;34.90;100747.69;5240506;27;34778;-86
2021/06/05 00:39:26;;;;;;;;;;;;;;;23.92;34.94;100744.19;5241094;27;35619;-87
2021/06/05 00:42:02;;;;;;;;;;;;;;;24.23;34.54;100743.81;5239561;27;32837;-87
2021/06/05 00:44:40;;;;;;;;;;;;;;;24.10;34.92;100738.50;5222841;27;34521;-87
2021/06/05 00:47:16;;;;;;;;;;;;;;;23.78;35.58;100731.00;5223256;27;35216;-87
2021/06/05 00:50:02;;;;;;;;;;;;;;;24.10;35.02;100730.53;5223937;27;32822;-87
2021/06/05 00:52:40;;;;;;;;;;;;;;;23.28;36.44;100729.09;5239444;27;32643;-87
2021/06/05 00:55:23;;;;;;;;;;;;;;;24.07;34.85;100722.78;5240081;27;33341;-86
2021/06/05 00:57:56;;;;;;;;;;;;;;;23.30;36.41;100729.84;5257522;27;34236;-87
2021/06/05 01:00:34;;;;;;;;;;;;;;;23.88;35.30;100723.19;5239413;27;32521;-87
2021/06/05 01:03:11;;;;;;;;;;;;;;;23.89;35.15;100722.25;5239455;27;33055;-86
2021/06/05 01:05:48;;;;;;;;;;;;;;;23.57;35.62;100715.56;5222906;27;34347;-86
2021/06/05 01:08:28;;;;;;;;;;;;;;;23.58;35.49;100709.31;5240737;27;34080;-86
2021/06/05 01:11:07;;;;;;;;;;;;;;;23.71;35.11;100703.12;5223228;27;33085;-87
2021/06/05 01:13:51;;;;;;;;;;;;;;;22.47;37.65;100701.69;5222727;27;33183;-86
2021/06/05 01:16:32;;;;;;;;;;;;;;;22.59;37.24;100708.00;5223809;27;34659;-86
2021/06/05 01:19:07;;;;;;;;;;;;;;;22.78;36.53;100699.66;5255514;27;33269;-87
2021/06/05 01:22:04;;;;;;;;;;;;;;;22.88;36.35;100702.53;5225333;27;34362;-86
2021/06/05 01:25:00;;;;;;;;;;;;;;;22.91;36.19;100706.78;5223891;27;32531;-86
2021/06/05 01:27:44;;;;;;;;;;;;;;;22.97;36.04;100698.41;5257295;27;35043;-87
2021/06/05 01:30:30;;;;;;;;;;;;;;;23.27;35.36;100694.66;5224200;27;33041;-86
2021/06/05 01:33:13;;;;;;;;;;;;;;;22.73;36.21;100693.78;5224521;27;33288;-86
2021/06/05 01:35:53;;;;;;;;;;;;;;;22.69;36.10;100692.31;5224142;27;32571;-86
2021/06/05 01:38:30;;;;;;;;;;;;;;;22.91;35.73;100691.72;5222577;27;32930;-87
2021/06/05 01:41:08;;;;;;;;;;;;;;;23.39;34.68;100683.16;5238699;27;34308;-87
2021/06/05 01:43:53;;;;;;;;;;;;;;;23.14;35.13;100684.00;5258699;27;34386;-87
2021/06/05 01:46:32;;;;;;;;;;;;;;;22.71;36.07;100681.56;5223155;27;33997;-86
2021/06/05 01:49:20;;;;;;;;;;;;;;;22.63;36.37;100676.75;5221407;27;32942;-87
2021/06/05 01:52:00;;;;;;;;;;;;;;;23.10;35.48;100679.84;5240526;27;33159;-87
2021/06/05 01:54:48;;;;;;;;;;;;;;;23.05;35.53;100677.47;5239947;27;33050;-86
2021/06/05 01:57:29;;;;;;;;;;;;;;;23.15;35.38;100683.06;5223924;27;33231;-87
2021/06/05 02:00:15;;;;;;;;;;;;;;;23.29;35.16;100674.94;5242253;27;33635;-87
2021/06/05 02:02:55;;;;;;;;;;;;;;;23.19;35.21;100665.94;5240489;27;34067;-87
2021/06/05 02:05:36;;;;;;;;;;;;;;;23.31;35.02;100661.56;5244220;27;34048;-87
2021/06/05 02:08:26;;;;;;;;;;;;;;;22.91;35.76;100665.16;5244867;27;32209;-86
2021/06/05 02:11:12;;;;;;;;;;;;;;;23.15;35.38;100653.81;5244130;27;35119;-87
2021/06/05 02:13:57;;;;;;;;;;;;;;;22.87;35.90;100649.50;5235461;27;34356;-86
2021/06/05 02:16:35;;;;;;;;;;;;;;;23.37;34.94;100657.63;5252367;27;33627;-87
2021/06/05 02:19:24;;;;;;;;;;;;;;;23.02;35.50;100651.97;5253918;27;32117;-87
2021/06/05 02:22:07;;;;;;;;;;;;;;;23.20;35.25;100650.84;5258593;27;33335;-87
2021/06/05 02:24:58;;;;;;;;;;;;;;;23.32;34.88;100645.50;5226919;27;34504;-87
2021/06/05 02:27:38;;;;;;;;;;;;;;;22.64;36.26;100642.16;5243236;27;34832;-87
2021/06/05 02:30:14;;;;;;;;;;;;;;;23.10;35.37;100645.28;5223425;27;33443;-86
2021/06/05 02:32:57;;;;;;;;;;;;;;;22.94;35.52;100646.31;5223926;27;33882;-87
2021/06/05 02:35:41;;;;;;;;;;;;;;;22.91;35.59;100643.91;5244428;27;34053;-87
2021/06/05 02:38:25;;;;;;;;;;;;;;;22.75;35.65;100635.25;5259700;27;33746;-87
2021/06/05 02:41:03;;;;;;;;;;;;;;;22.71;35.91;100641.72;5224409;27;33039;-87
2021/06/05 02:43:42;;;;;;;;;;;;;;;22.45;36.54;100644.34;5223083;27;33210;-87
2021/06/05 02:46:24;;;;;;;;;;;;;;;23.13;35.22;100634.44;5239930;27;33788;-86
2021/06/05 02:49:05;;;;;;;;;;;;;;;22.82;35.85;100644.53;5223530;27;34084;-87
2021/06/05 02:51:56;;;;;;;;;;;;;;;21.91;37.80;100653.97;5240679;27;32337;-87
2021/06/05 02:54:38;;;;;;;;;;;;;;;21.54;38.68;100652.78;5241200;27;33698;-86
2021/06/05 02:57:16;;;;;;;;;;;;;;;20.74;40.59;100655.81;5240840;27;34224;-86
2021/06/05 02:59:54;;;;;;;;;;;;;;;20.76;40.56;100654.78;5258689;27;34883;-87
2021/06/05 03:02:35;;;;;;;;;;;;;;;20.80;40.40;100656.28;5256445;27;33380;-87
2021/06/05 03:05:16;;;;;;;;;;;;;;;21.64;38.44;100644.16;5240175;27;33411;-87
2021/06/05 03:07:56;;;;;;;;;;;;;;;21.98;37.59;100643.81;5239517;27;34595;-87
2021/06/05 03:10:42;;;;;;;;;;;;;;;21.78;38.10;100635.34;5225934;27;32862;-87
2021/06/05 03:13:22;;;;;;;;;;;;;;;21.89;37.92;100637.28;5240847;27;32496;-87
2021/06/05 03:16:06;;;;;;;;;;;;;;;22.12;37.54;100632.31;5224893;27;34003;-87
2021/06/05 03:18:55;;;;;;;;;;;;;;;21.47;38.98;100639.91;5241675;27;35685;-86
2021/06/05 03:21:36;;;;;;;;;;;;;;;22.20;37.51;100635.28;5225099;27;33865;-86
2021/06/05 03:24:17;;;;;;;;;;;;;;;22.08;37.82;100636.09;5240692;27;33566;-87
2021/06/05 03:27:10;;;;;;;;;;;;;;;21.83;38.61;100627.94;5224667;27;32949;-87
2021/06/05 03:29:50;;;;;;;;;;;;;;;21.66;39.08;100631.66;5224351;27;34672;-87
2021/06/05 03:32:31;;;;;;;;;;;;;;;22.14;37.85;100633.06;5225043;27;34958;-87
2021/06/05 03:35:18;;;;;;;;;;;;;;;21.81;37.98;100637.78;5259302;27;33059;-87
2021/06/05 03:38:04;;;;;;;;;;;;;;;22.31;36.91;100631.94;5240784;27;34677;-86
2021/06/05 03:40:43;;;;;;;;;;;;;;;22.47;36.69;100631.78;5224327;27;34755;-87
2021/06/05 03:43:26;;;;;;;;;;;;;;;22.17;37.46;100635.50;5240760;27;32976;-87
2021/06/05 03:46:10;;;;;;;;;;;;;;;21.96;37.98;100635.09;5243423;27;32319;-87
2021/06/05 03:48:53;;;;;;;;;;;;;;;21.29;39.45;100635.75;5224117;27;32887;-87
2021/06/05 03:51:52;;;;;;;;;;;;;;;22.11;37.81;100635.91;5241819;27;33311;-87
2021/06/05 03:54:26;;;;;;;;;;;;;;;22.54;37.12;100641.06;5241066;27;33889;-87
2021/06/05 03:57:08;;;;;;;;;;;;;;;22.55;37.35;100639.25;5243010;27;33629;-87
2021/06/05 03:59:52;;;;;;;;;;;;;;;22.40;37.75;100635.81;5242642;27;33172;-87
2021/06/05 04:02:31;;;;;;;;;;;;;;;22.66;37.26;100637.56;5245739;27;32725;-86
2021/06/05 04:05:22;;;;;;;;;;;;;;;22.19;38.24;100637.13;5233297;27;34215;-86
2021/06/05 04:08:02;;;;;;;;;;;;;;;22.76;37.17;100636.97;5250589;27;32767;-86
2021/06/05 04:10:39;;;;;;;;;;;;;;;22.35;38.05;100631.69;5240792;27;34736;-87
2021/06/05 04:13:29;;;;;;;;;;;;;;;22.22;38.49;100630.75;5241131;27;34482;-86
2021/06/05 04:16:11;;;;;;;;;;;;;;;22.64;37.67;100614.72;5240733;27;33128;-86
2021/06/05 04:18:50;;;;;;;;;;;;;;;22.67;37.76;100620.69;5240577;27;32380;-86
2021/06/05 04:21:32;;;;;;;;;;;;;;;23.18;36.85;100622.53;5222677;27;32924;-86
2021/06/05 04:24:10;;;;;;;;;;;;;;;23.09;37.18;100620.50;5224289;27;33177;-86
2021/06/05 04:26:55;;;;;;;;;;;;;;;23.68;36.08;100619.91;5224817;27;34045;-87
2021/06/05 04:29:40;;;;;;;;;;;;;;;23.49;36.59;100615.06;5224176;27;32155;-87
2021/06/05 04:32:38;;;;;;;;;;;;;;;23.56;36.68;100619.94;5224762;27;33019;-87
2021/06/05 04:35:34;;;;;;;;;;;;;;;23.61;36.64;100618.66;5229062;27;33006;-87
2021/06/05 04:38:53;;;;;;;;;;;;;;;23.74;36.50;100615.94;5230573;27;32958;-86
2021/06/05 04:41:39;;;;;;;;;;;;;;;24.19;35.91;100610.06;5241199;27;32020;-86
2021/06/05 04:44:32;;;;;;;;;;;;;;;24.28;35.92;100608.53;5230034;27;33344;-87
2021/06/05 04:47:37;;;;;;;;;;;;;;;24.55;35.56;100605.59;5229580;27;34810;-87
2021/06/05 04:50:28;;;;;;;;;;;;;;;24.79;35.43;100607.38;5226490;27;34593;-87
2021/06/05 04:53:17;;;;;;;;;;;;;;;24.98;35.20;100594.31;5224959;27;32656;-86
2021/06/05 04:56:20;;;;;;;;;;;;;;;25.14;35.06;100590.44;5241503;27;35149;-86
2021/06/05 04:59:28;;;;;;;;;;;;;;;24.94;35.38;100592.87;5244843;27;34087;-87
2021/06/05 05:02:40;;;;;;;;;;;;;;;25.31;34.75;100584.59;5231295;27;32564;-87
2021/06/05 05:05:56;;;;;;;;;;;;;;;25.60;34.49;100589.44;5259958;27;32814;-87
2021/06/05 05:08:55;;;;;;;;;;;;;;;25.04;35.55;100584.97;5243501;27;35168;-87
2021/06/05 05:11:54;;;;;;;;;;;;;;;24.84;36.48;100587.38;5229006;27;33831;-86
2021/06/05 05:15:09;;;;;;;;;;;;;;;25.27;35.69;100582.31;5243180;27;32744;-87
2021/06/05 05:18:11;;;;;;;;;;;;;;;26.15;34.04;100588.59;5246988;27;33806;-87
2021/06/05 05:20:55;;;;;;;;;;;;;;;26.39;33.60;100595.53;5237901;27;33244;-87
2021/06/05 05:27:31;;;;;;;;;;;;;;;27.00;32.22;100592.97;5148927;27;34868;-87
2021/06/05 05:35:30;;;;;;;;;;;;;;;27.46;30.25;100596.13;5127728;27;33092;-87
2021/06/05 05:39:40;;;;;;;;;;;;;;;27.71;29.74;100604.66;5048451;28;34561;-87
2021/06/05 05:43:12;;;;;;;;;;;;;;;;;;;;;
2021/06/05 05:47:15;;;;;;;;;;;;;;;27.88;29.34;100602.28;5009016;28;33223;-87
2021/06/05 05:54:21;;;;;;;;;;;;;;;28.39;28.75;100603.88;5140602;27;34386;-85
2021/06/05 05:57:37;;;;;;;;;;;;;;;28.31;29.00;100607.25;5189093;27;33900;-87
2021/06/05 06:01:11;;;;;;;;;;;;;;;28.32;29.31;100603.59;5127849;27;32560;-86
2021/06/05 06:04:47;;;;;;;;;;;;;;;28.78;28.87;100603.81;5173759;27;34139;-86
2021/06/05 06:08:34;;;;;;;;;;;;;;;28.90;28.78;100606.34;5140329;27;35155;-86
2021/06/05 06:23:35;;;;;;;;;;;;;;;29.18;29.25;100604.53;5244724;27;34031;-86
2021/06/05 06:27:09;;;;;;;;;;;;;;;29.11;29.39;100611.50;5253861;27;32562;-86
2021/06/05 06:31:00;;;;;;;;;;;;;;;28.93;30.20;100608.72;5240244;27;34257;-86
2021/06/05 06:34:39;;;;;;;;;;;;;;;;;;;;;
2021/06/05 06:38:17;;;;;;;;;;;;;;;;;;;;;
2021/06/05 06:41:52;;;;;;;;;;;;;;;29.56;28.99;100609.91;5237086;27;34424;-87
2021/06/05 06:45:18;;;;;;;;;;;;;;;29.68;28.95;100619.44;5262749;27;33173;-87
2021/06/05 06:48:46;;;;;;;;;;;;;;;29.76;29.17;100621.38;5248206;27;33103;-86
2021/06/05 06:52:24;;;;;;;;;;;;;;;30.19;28.44;100617.09;5248356;27;35169;-86
2021/06/05 06:56:04;;;;;;;;;;;;;;;29.70;28.07;100614.72;5233387;27;34074;-87
2021/06/05 06:59:35;;;;;;;;;;;;;;;29.53;27.88;100607.50;5253147;27;33694;-87
2021/06/05 07:06:12;;;;;;;;;;;;;;;30.64;26.59;100601.88;5246719;27;34770;-86
2021/06/05 07:09:03;;;;;;;;;;;;;;;29.27;25.57;100603.66;5241095;27;34056;-87
2021/06/05 07:12:01;;;;;;;;;;;;;;;27.98;26.13;100598.59;5228502;27;33092;-86
2021/06/05 07:14:44;;;;;;;;;;;;;;;27.60;25.73;100589.56;5223453;27;33853;-87
2021/06/05 07:17:21;;;;;;;;;;;;;;;27.58;25.87;100590.69;5223462;27;33443;-87
2021/06/05 07:20:02;;;;;;;;;;;;;;;27.37;25.80;100590.72;5240308;27;32688;-87
2021/06/05 07:22:38;;;;;;;;;;;;;;;26.64;26.61;100587.09;5239895;27;32799;-87
2021/06/05 07:25:27;;;;;;;;;;;;;;;27.48;25.89;100588.81;5226691;27;34237;-87
2021/06/05 07:28:11;;;;;;;;;;;;;;;28.74;23.86;100580.97;5239738;27;33424;-87
2021/06/05 07:30:51;;;;;;;;;;;;;;;28.76;23.92;100579.00;5258056;27;33432;-87
2021/06/05 07:33:38;;;;;;;;;;;;;;;28.53;24.78;100573.06;5223971;27;32124;-87
2021/06/05 07:36:21;;;;;;;;;;;;;;;27.74;25.43;100572.25;5225126;27;33913;-87
2021/06/05 07:39:00;;;;;;;;;;;;;;;28.74;24.51;100574.78;5241193;27;33467;-86
2021/06/05 07:41:43;;;;;;;;;;;;;;;28.41;25.75;100569.72;5243694;27;34345;-86
2021/06/05 07:44:20;;;;;;;;;;;;;;;29.20;25.22;100569.50;5224084;27;34033;-87
2021/06/05 07:46:57;;;;;;;;;;;;;;;28.90;25.59;100566.09;5250076;27;35302;-86
2021/06/05 07:49:34;;;;;;;;;;;;;;;29.09;23.71;100565.16;5253223;27;33202;-87
2021/06/05 07:52:13;;;;;;;;;;;;;;;28.96;23.67;100568.22;5236728;27;33601;-86
2021/06/05 07:54:55;;;;;;;;;;;;;;;29.16;23.82;100574.34;5231031;27;32112;-87
2021/06/05 07:57:26;;;;;;;;;;;;;;;28.87;24.61;100566.41;5222926;27;33802;-86
2021/06/05 08:00:05;;;;;;;;;;;;;;;28.94;24.28;100568.34;5257569;27;33845;-85
2021/06/05 08:02:40;;;;;;;;;;;;;;;28.87;24.79;100563.72;5240872;27;34513;-86
2021/06/05 08:05:18;;;;;;;;;;;;;;;28.72;24.96;100563.34;5224441;27;33706;-86
2021/06/05 08:07:57;;;;;;;;;;;;;;;30.13;23.05;100553.25;5241794;27;34940;-87
2021/06/05 08:10:35;;;;;;;;;;;;;;;30.49;21.85;100547.81;5239641;27;33074;-86
2021/06/05 08:13:10;;;;;;;;;;;;;;;29.46;23.92;100551.75;5239711;27;33239;-87
2021/06/05 08:15:47;;;;;;;;;;;;;;;28.32;26.21;100549.13;5239399;27;33913;-86
2021/06/05 08:18:20;;;;;;;;;;;;;;;28.27;26.29;100546.91;5221957;27;34394;-87
2021/06/05 08:20:55;;;;;;;;;;;;;;;28.88;25.86;100544.81;5223036;27;33042;-86
2021/06/05 08:23:29;;;;;;;;;;;;;;;29.02;25.01;100548.00;5221921;27;33427;-87
2021/06/05 08:26:21;;;;;;;;;;;;;;;29.67;23.99;100539.03;5228167;27;33700;-86
2021/06/05 08:28:52;;;;;;;;;;;;;;;29.68;23.56;100536.19;5239900;27;34162;-87
2021/06/05 08:31:32;;;;;;;;;;;;;;;30.57;21.47;100534.44;5223860;27;35914;-86
2021/06/05 08:34:07;;;;;;;;;;;;;;;30.94;21.94;100535.97;5239269;27;34193;-86
2021/06/05 08:36:44;;;;;;;;;;;;;;;30.97;22.59;100529.44;5242252;27;33191;-87
2021/06/05 08:39:17;;;;;;;;;;;;;;;29.52;23.73;100526.13;5239367;27;33380;-87
2021/06/05 08:41:51;;;;;;;;;;;;;;;28.34;25.31;100531.09;5222373;27;33395;-87
2021/06/05 08:44:34;;;;;;;;;;;;;;;29.53;23.70;100530.50;5240778;27;33784;-86
2021/06/05 08:47:16;;;;;;;;;;;;;;;30.42;21.99;100520.72;5223327;27;32446;-86
2021/06/05 08:49:47;;;;;;;;;;;;;;;30.28;20.70;100515.91;5221929;27;33585;-86
2021/06/05 08:52:36;;;;;;;;;;;;;;;28.86;23.00;100519.97;5241408;27;34953;-87
2021/06/05 08:55:12;;;;;;;;;;;;;;;29.20;23.31;100522.06;5222820;27;34390;-87
2021/06/05 08:57:52;;;;;;;;;;;;;;;28.86;22.72;100522.63;5240116;27;33889;-87
2021/06/05 09:00:33;;;;;;;;;;;;;;;29.09;21.49;100519.56;5239033;27;33726;-86
2021/06/05 09:03:09;;;;;;;;;;;;;;;28.77;20.31;100521.72;5222742;27;35060;-86
2021/06/05 09:05:48;;;;;;;;;;;;;;;29.51;20.10;100518.22;5240389;27;33330;-86
2021/06/05 09:08:23;;;;;;;;;;;;;;;29.28;21.34;100519.50;5239988;27;32521;-87
2021/06/05 09:11:11;;;;;;;;;;;;;;;28.93;21.13;100513.03;5241865;27;34987;-86
2021/06/05 09:13:45;;;;;;;;;;;;;;;29.97;20.07;100514.50;5239827;27;33847;-87
2021/06/05 09:16:22;;;;;;;;;;;;;;;30.30;19.85;100500.44;5223197;27;33127;-87
2021/06/05 09:18:55;;;;;;;;;;;;;;;31.07;19.29;100497.87;5239414;27;33217;-86
2021/06/05 09:21:34;;;;;;;;;;;;;;;30.66;19.30;100503.06;5239973;27;33625;-85
2021/06/05 09:24:12;;;;;;;;;;;;;;;30.26;20.15;100501.75;5239644;27;34962;-87
2021/06/05 09:27:04;;;;;;;;;;;;;;;31.05;19.65;100499.88;5223390;27;33312;-86
2021/06/05 09:29:44;;;;;;;;;;;;;;;31.78;18.90;100492.16;5257271;27;33385;-87
2021/06/05 09:32:20;;;;;;;;;;;;;;;32.20;18.45;100491.13;5258358;27;33378;-87
2021/06/05 09:35:01;;;;;;;;;;;;;;;32.07;18.70;100491.63;5225319;27;37381;-88
2021/06/05 09:37:36;;;;;;;;;;;;;;;30.61;20.63;100495.47;5224279;27;32856;-86
2021/06/05 09:40:20;;;;;;;;;;;;;;;30.67;20.95;100490.44;5240750;27;33325;-86
2021/06/05 09:42:57;;;;;;;;;;;;;;;30.70;21.10;100492.81;5261602;27;34658;-86
2021/06/05 09:45:33;;;;;;;;;;;;;;;29.60;22.11;100494.00;5248017;27;33045;-87
2021/06/05 09:48:17;;;;;;;;;;;;;;;29.85;21.09;100488.00;5234363;27;34386;-86
2021/06/05 09:50:53;;;;;;;;;;;;;;;29.56;22.35;100497.97;5263659;27;33446;-86
2021/06/05 09:53:30;;;;;;;;;;;;;;;30.63;20.31;100474.66;5223200;27;35190;-86
2021/06/05 09:56:12;;;;;;;;;;;;;;;31.54;19.66;100479.47;5243865;27;34905;-87
2021/06/05 09:58:46;;;;;;;;;;;;;;;30.34;21.12;100490.22;5239571;27;33404;-87
2021/06/05 10:01:30;;;;;;;;;;;;;;;30.81;20.34;100481.78;5225962;27;33638;-86
2021/06/05 10:04:07;;;;;;;;;;;;;;;31.78;18.81;100478.69;5240008;27;34257;-87
2021/06/05 10:06:42;;;;;;;;;;;;;;;31.95;18.63;100476.81;5239904;27;33464;-86
2021/06/05 10:09:24;;;;;;;;;;;;;;;30.13;19.91;100478.00;5239399;27;32528;-87
2021/06/05 10:11:59;;;;;;;;;;;;;;;29.89;20.61;100465.22;5257016;27;32705;-86
2021/06/05 10:14:37;;;;;;;;;;;;;;;30.29;20.72;100467.37;5223685;27;33191;-87
2021/06/05 10:17:14;;;;;;;;;;;;;;;31.25;19.40;100460.06;5239360;27;33324;-86
2021/06/05 10:19:51;;;;;;;;;;;;;;;31.30;19.61;100457.72;5258219;27;34492;-86
2021/06/05 10:22:24;;;;;;;;;;;;;;;31.85;18.98;100446.53;5239053;27;32632;-86
2021/06/05 10:24:59;;;;;;;;;;;;;;;30.86;20.13;100446.31;5223274;27;33406;-86
2021/06/05 10:27:32;;;;;;;;;;;;;;;30.54;19.63;100440.66;5240045;27;33987;-87
2021/06/05 10:30:07;;;;;;;;;;;;;;;30.55;19.86;100439.63;5223318;27;33931;-86
2021/06/05 10:32:41;;;;;;;;;;;;;;;30.51;20.07;100442.81;5239550;27;33859;-85
2021/06/05 10:35:24;;;;;;;;;;;;;;;30.93;19.87;100437.44;5239420;27;33517;-86
2021/06/05 10:38:02;;;;;;;;;;;;;;;30.11;21.00;100435.16;5258120;27;34658;-86
2021/06/05 10:40:47;;;;;;;;;;;;;;;30.12;21.08;100434.16;5245167;27;33783;-86
2021/06/05 10:43:17;;;;;;;;;;;;;;;30.61;19.62;100424.72;5221693;27;32445;-87
2021/06/05 10:45:48;;;;;;;;;;;;;;;31.56;18.58;100426.28;5222481;27;34045;-87
2021/06/05 10:48:29;;;;;;;;;;;;;;;31.59;18.52;100432.19;5223011;27;33473;-87
2021/06/05 10:51:03;;;;;;;;;;;;;;;31.62;18.38;100423.81;5222615;27;33000;-87
2021/06/05 10:53:38;;;;;;;;;;;;;;;31.26;17.95;100428.59;5222458;27;33186;-87
2021/06/05 10:56:15;;;;;;;;;;;;;;;32.17;17.10;100428.66;5241976;27;33267;-87
2021/06/05 10:58:52;;;;;;;;;;;;;;;32.01;16.75;100422.25;5223024;27;34365;-87
2021/06/05 11:01:31;;;;;;;;;;;;;;;32.41;16.53;100420.47;5239688;27;34174;-87
2021/06/05 11:04:07;;;;;;;;;;;;;;;32.88;16.53;100421.50;5257104;27;34327;-86
2021/06/05 11:06:46;;;;;;;;;;;;;;;33.32;15.17;100408.41;5222242;27;33024;-87
2021/06/05 11:09:31;;;;;;;;;;;;;;;33.36;15.34;100410.59;5239464;27;33959;-86
2021/06/05 11:12:13;;;;;;;;;;;;;;;34.21;14.88;100407.75;5239927;27;33145;-86
2021/06/05 11:14:46;;;;;;;;;;;;;;;32.57;15.84;100405.25;5239658;27;32790;-87
2021/06/05 11:17:44;;;;;;;;;;;;;;;33.69;15.54;100412.16;5240155;27;34630;-86
2021/06/05 11:20:19;;;;;;;;;;;;;;;33.08;15.86;100402.13;5239236;27;32989;-85
2021/06/05 11:22:50;;;;;;;;;;;;;;;34.48;14.63;100392.78;5256692;27;33622;-86
2021/06/05 11:25:24;;;;;;;;;;;;;;;34.29;14.02;100388.72;5256528;27;32693;-87
2021/06/05 11:28:21;;;;;;;;;;;;;;;34.52;13.90;100385.97;5240237;27;33372;-87
2021/06/05 11:30:56;;;;;;;;;;;;;;;34.10;14.68;100393.69;5222613;27;35108;-85
2021/06/05 11:33:42;;;;;;;;;;;;;;;34.24;14.74;100391.19;5239154;27;34525;-87
2021/06/05 11:36:32;;;;;;;;;;;;;;;34.47;14.68;100382.16;5250037;27;32840;-86
2021/06/05 11:39:10;;;;;;;;;;;;;;;33.61;15.87;100394.16;5266903;27;33577;-85
2021/06/05 11:41:49;;;;;;;;;;;;;;;33.64;14.78;100385.69;5230502;27;34572;-87
2021/06/05 11:44:31;;;;;;;;;;;;;;;33.61;14.68;100396.84;5240050;27;35305;-87
2021/06/05 11:47:18;;;;;;;;;;;;;;;33.66;14.70;100380.09;5239620;27;33549;-87
2021/06/05 11:50:08;;;;;;;;;;;;;;;33.59;14.70;100378.12;5257388;27;33659;-86
2021/06/05 11:52:47;;;;;;;;;;;;;;;34.62;13.93;100378.38;5239000;27;33670;-87
2021/06/05 11:55:28;;;;;;;;;;;;;;;33.47;15.69;100363.41;5241553;27;34778;-86
2021/06/05 11:58:02;;;;;;;;;;;;;;;33.92;15.60;100360.81;5238957;27;33526;-87
2021/06/05 12:00:39;;;;;;;;;;;;;;;34.74;14.24;100370.62;5239464;27;33583;-87
2021/06/05 12:03:24;;;;;;;;;;;;;;;35.42;13.71;100377.56;5238775;27;34845;-87
2021/06/05 12:06:12;;;;;;;;;;;;;;;33.86;15.15;100370.47;5239155;27;32976;-88
2021/06/05 12:08:44;;;;;;;;;;;;;;;34.57;14.86;100363.72;5240310;27;34169;-87
2021/06/05 12:11:20;;;;;;;;;;;;;;;34.86;14.19;100352.00;5223104;27;34140;-86
2021/06/05 12:14:23;;;;;;;;;;;;;;;36.01;13.45;100354.66;5222825;27;34127;-86
2021/06/05 12:16:56;;;;;;;;;;;;;;;35.45;13.76;100356.34;5241264;27;34034;-86
2021/06/05 12:19:31;;;;;;;;;;;;;;;35.69;13.67;100356.13;5222724;27;32202;-86
2021/06/05 12:22:10;;;;;;;;;;;;;;;35.75;13.87;100358.87;5222786;27;33530;-87
2021/06/05 12:24:48;;;;;;;;;;;;;;;35.82;13.74;100339.94;5222383;27;34445;-86
2021/06/05 12:27:23;;;;;;;;;;;;;;;35.55;14.47;100347.88;5221865;27;34765;-87
2021/06/05 12:30:12;;;;;;;;;;;;;;;35.20;13.89;100350.47;5239350;27;32637;-86
2021/06/05 12:32:55;;;;;;;;;;;;;;;35.87;13.74;100336.66;5238902;27;33888;-88
2021/06/05 12:35:33;;;;;;;;;;;;;;;34.55;14.91;100341.47;5222862;27;33518;-87
2021/06/05 12:38:10;;;;;;;;;;;;;;;34.61;15.28;100341.53;5239705;27;34706;-87
2021/06/05 12:40:47;;;;;;;;;;;;;;;35.86;13.94;100335.81;5222466;27;34435;-86
2021/06/05 12:43:17;;;;;;;;;;;;;;;34.09;15.69;100337.09;5220616;27;33096;-86
2021/06/05 12:45:46;;;;;;;;;;;;;;;34.03;15.41;100335.16;5220964;27;33095;-86
2021/06/05 12:48:19;;;;;;;;;;;;;;;35.25;14.64;100339.91;5240826;27;33978;-87
2021/06/05 12:50:55;;;;;;;;;;;;;;;34.72;15.21;100342.06;5239811;27;32872;-87
2021/06/05 12:53:26;;;;;;;;;;;;;;;33.56;16.33;100337.12;5239394;27;34214;-87
2021/06/05 12:56:02;;;;;;;;;;;;;;;33.82;16.08;100335.91;5240783;27;33992;-87
2021/06/05 12:58:40;;;;;;;;;;;;;;;33.81;16.21;100323.41;5257601;27;33571;-86
2021/06/05 13:01:41;;;;;;;;;;;;;;;32.61;17.32;100323.81;5220901;27;32420;-86
2021/06/05 13:04:37;;;;;;;;;;;;;;;33.80;16.69;100314.47;5183515;27;875506;-86
2021/06/05 13:07:08;;;;;;;;;;;;;;;33.16;17.12;100321.13;5256833;27;33729;-86
2021/06/05 13:09:40;;;;;;;;;;;;;;;32.46;17.87;100304.84;5221235;27;32808;-86
2021/06/05 13:12:19;;;;;;;;;;;;;;;33.73;17.08;100308.09;5257521;27;32821;-86
2021/06/05 13:15:13;;;;;;;;;;;;;;;33.00;17.47;100310.44;5273937;27;34469;-87
2021/06/05 13:17:55;;;;;;;;;;;;;;;33.45;16.95;100297.91;5240899;27;35281;-85
2021/06/05 13:20:27;;;;;;;;;;;;;;;33.24;17.06;100298.59;5239219;27;33389;-87
2021/06/05 13:23:12;;;;;;;;;;;;;;;33.96;16.39;100298.06;5228266;27;32383;-86
2021/06/05 13:25:42;;;;;;;;;;;;;;;34.52;15.75;100285.88;5230400;27;34196;-86
2021/06/05 13:28:15;;;;;;;;;;;;;;;35.20;15.25;100282.78;5231774;27;32395;-86
2021/06/05 13:30:49;;;;;;;;;;;;;;;35.21;15.38;100278.19;5245813;27;33163;-86
2021/06/05 13:33:25;;;;;;;;;;;;;;;34.83;15.52;100286.62;5227705;27;32536;-86
2021/06/05 13:36:00;;;;;;;;;;;;;;;34.79;15.58;100284.25;5259122;27;33300;-87
2021/06/05 13:38:36;;;;;;;;;;;;;;;33.78;16.61;100282.22;5241224;27;34264;-87
2021/06/05 13:41:06;;;;;;;;;;;;;;;33.72;17.01;100271.28;5221854;27;35125;-87
2021/06/05 13:43:36;;;;;;;;;;;;;;;33.68;16.90;100260.03;5238852;27;35210;-86
2021/06/05 13:46:06;;;;;;;;;;;;;;;35.22;15.67;100264.47;5238654;27;32999;-86
2021/06/05 13:48:39;;;;;;;;;;;;;;;35.84;14.87;100261.16;5238429;27;32828;-86
2021/06/05 13:51:14;;;;;;;;;;;;;;;35.64;15.42;100252.91;5257284;27;34513;-86
2021/06/05 13:53:48;;;;;;;;;;;;;;;35.53;15.06;100257.84;5257704;27;32155;-87
2021/06/05 13:56:21;;;;;;;;;;;;;;;36.07;14.47;100250.84;5256623;27;34469;-87
2021/06/05 13:58:53;;;;;;;;;;;;;;;35.74;14.95;100248.78;5223760;27;34453;-85
2021/06/05 14:01:25;;;;;;;;;;;;;;;35.00;15.85;100244.72;5240167;27;33155;-86
2021/06/05 14:03:56;;;;;;;;;;;;;;;33.73;16.73;100238.72;5222920;27;32434;-87
2021/06/05 14:06:25;;;;;;;;;;;;;;;35.20;15.63;100238.62;5221762;27;34593;-85
2021/06/05 14:08:55;;;;;;;;;;;;;;;34.65;16.01;100235.62;5239306;27;34813;-88
2021/06/05 14:11:26;;;;;;;;;;;;;;;34.93;15.62;100224.91;5222961;27;32762;-87
2021/06/05 14:14:01;;;;;;;;;;;;;;;35.44;15.42;100229.22;5240079;27;33507;-86
2021/06/05 14:16:32;;;;;;;;;;;;;;;33.81;16.61;100224.25;5241166;27;33739;-86
2021/06/05 14:19:06;;;;;;;;;;;;;;;34.42;16.19;100215.03;5240887;27;34872;-86
2021/06/05 14:21:36;;;;;;;;;;;;;;;35.06;15.28;100210.59;5238906;27;33783;-86
2021/06/05 14:24:07;;;;;;;;;;;;;;;35.89;15.00;100209.91;5257751;27;34693;-86
2021/06/05 14:26:39;;;;;;;;;;;;;;;34.71;16.46;100208.62;5240268;27;34328;-87
2021/06/05 14:29:09;;;;;;;;;;;;;;;33.73;16.96;100208.12;5239745;27;34511;-85
2021/06/05 14:31:41;;;;;;;;;;;;;;;34.42;16.70;100206.91;5239361;27;35264;-87
2021/06/05 14:34:11;;;;;;;;;;;;;;;34.98;16.07;100210.75;5222264;27;32823;-87